Ana Sayfa
METAR-TAF:

METAR-TAF

Havaalanları :

Fort Hood / Killeen, Teksas, Amerika Birleşik Devletleri

Enlem: 31-06N, Boylam: 097-20W, yükseklik: 283 m

Güncel hava durumu gözlemi

Rapor saat 05:58 UTC de 41 dakika önce yapıldı.
Rüzgar güney/güneydoğudan 9 kt ve 16 kt'a kadar ani rüzgarlar
Sıcaklık 26°C
Nem 84%
Basınç 1011 hPa
Görüş mesafesi: 12.9 km
1500 ft yükseklikte çok bulutlu

METAR: KHLR 230558Z AUTO 16009G16KT 8SM OVC015 26/23 A2984 RMK AO2 SLP092 T02590229 10302 20258 403290207 51015

Saat: 00:39 (06:39 UTC)


TAF: eksik

4.000'den fazla havaalanı için hava durumu gözlemleri ve tahminleri (METAR ve TAF raporları).

Kullanılabilir istasyonlar harita üzerinde sarı ve kırmızı noktalarla gösterilir.

İstasyonun adını görmek için fareyi noktanın üzerinde gezdirin.

Sonrasında hava gözlem ve tahminlerini görmek için tıklayın.

Haritayı değiştirmek için: yaklaştırmak için siyah artı işaretli yeşil düğmeye ve uzaklaştırmak için de eksi işaretli düğmeye hızla tıklayın; bitişik haritalar için yeşil okları kullanın.


METAR-TAF: